sensor_id;sensor_type;location;lat;lon;timestamp;temperature;humidity
16736;DHT22;17990;49.548;9.730;2022-10-31T00:00:29;9.30;99.90
16736;DHT22;17990;49.548;9.730;2022-10-31T00:02:56;9.20;99.90
16736;DHT22;17990;49.548;9.730;2022-10-31T00:05:23;9.20;99.90
16736;DHT22;17990;49.548;9.730;2022-10-31T00:07:52;9.20;99.90
16736;DHT22;17990;49.548;9.730;2022-10-31T00:10:19;9.20;99.90
16736;DHT22;17990;49.548;9.730;2022-10-31T00:12:47;9.30;99.90
16736;DHT22;17990;49.548;9.730;2022-10-31T00:15:14;9.20;99.90
16736;DHT22;17990;49.548;9.730;2022-10-31T00:17:41;9.20;99.90
16736;DHT22;17990;49.548;9.730;2022-10-31T00:20:10;9.20;99.90
16736;DHT22;17990;49.548;9.730;2022-10-31T00:22:37;9.20;99.90
16736;DHT22;17990;49.548;9.730;2022-10-31T00:25:04;9.10;99.90
16736;DHT22;17990;49.548;9.730;2022-10-31T00:27:31;9.10;99.90
16736;DHT22;17990;49.548;9.730;2022-10-31T00:29:59;9.10;99.90
16736;DHT22;17990;49.548;9.730;2022-10-31T00:32:28;9.10;99.90
16736;DHT22;17990;49.548;9.730;2022-10-31T00:34:55;9.10;99.90
16736;DHT22;17990;49.548;9.730;2022-10-31T00:37:22;9.10;99.90
16736;DHT22;17990;49.548;9.730;2022-10-31T00:39:49;9.00;99.90
16736;DHT22;17990;49.548;9.730;2022-10-31T00:42:16;9.00;99.90
16736;DHT22;17990;49.548;9.730;2022-10-31T00:44:43;9.00;99.90
16736;DHT22;17990;49.548;9.730;2022-10-31T00:47:11;9.00;99.90
16736;DHT22;17990;49.548;9.730;2022-10-31T00:49:38;9.10;99.90
16736;DHT22;17990;49.548;9.730;2022-10-31T00:52:04;9.10;99.90
16736;DHT22;17990;49.548;9.730;2022-10-31T00:54:31;9.10;99.90
16736;DHT22;17990;49.548;9.730;2022-10-31T00:56:58;9.10;99.90
16736;DHT22;17990;49.548;9.730;2022-10-31T00:59:25;9.00;99.90
16736;DHT22;17990;49.548;9.730;2022-10-31T01:01:52;9.00;99.90
16736;DHT22;17990;49.548;9.730;2022-10-31T01:04:20;8.90;99.90
16736;DHT22;17990;49.548;9.730;2022-10-31T01:06:47;8.90;99.90
16736;DHT22;17990;49.548;9.730;2022-10-31T01:09:14;8.80;99.90
16736;DHT22;17990;49.548;9.730;2022-10-31T01:11:41;8.90;99.90
16736;DHT22;17990;49.548;9.730;2022-10-31T01:14:08;8.90;99.90
16736;DHT22;17990;49.548;9.730;2022-10-31T01:16:35;8.90;99.90
16736;DHT22;17990;49.548;9.730;2022-10-31T01:19:02;8.90;99.90
16736;DHT22;17990;49.548;9.730;2022-10-31T01:21:31;8.80;99.90
16736;DHT22;17990;49.548;9.730;2022-10-31T01:23:58;8.80;99.90
16736;DHT22;17990;49.548;9.730;2022-10-31T01:26:28;8.80;99.90
16736;DHT22;17990;49.548;9.730;2022-10-31T01:28:58;8.80;99.90
16736;DHT22;17990;49.548;9.730;2022-10-31T01:31:27;8.80;99.90
16736;DHT22;17990;49.548;9.730;2022-10-31T01:33:55;8.80;99.90
16736;DHT22;17990;49.548;9.730;2022-10-31T01:36:24;8.80;99.90
16736;DHT22;17990;49.548;9.730;2022-10-31T01:38:56;8.80;99.90
16736;DHT22;17990;49.548;9.730;2022-10-31T01:41:27;8.80;99.90
16736;DHT22;17990;49.548;9.730;2022-10-31T01:43:57;8.80;99.90
16736;DHT22;17990;49.548;9.730;2022-10-31T01:46:27;8.90;99.90
16736;DHT22;17990;49.548;9.730;2022-10-31T01:48:57;8.90;99.90
16736;DHT22;17990;49.548;9.730;2022-10-31T01:51:29;8.90;99.90
16736;DHT22;17990;49.548;9.730;2022-10-31T01:54:03;9.00;99.90
16736;DHT22;17990;49.548;9.730;2022-10-31T01:56:34;9.10;99.90
16736;DHT22;17990;49.548;9.730;2022-10-31T01:59:04;9.10;99.90
16736;DHT22;17990;49.548;9.730;2022-10-31T02:01:34;9.00;99.90
16736;DHT22;17990;49.548;9.730;2022-10-31T02:04:01;9.00;99.90
16736;DHT22;17990;49.548;9.730;2022-10-31T02:06:36;8.90;99.90
16736;DHT22;17990;49.548;9.730;2022-10-31T02:09:06;8.80;99.90
16736;DHT22;17990;49.548;9.730;2022-10-31T02:11:34;8.80;99.90
16736;DHT22;17990;49.548;9.730;2022-10-31T02:14:03;8.80;99.90
16736;DHT22;17990;49.548;9.730;2022-10-31T02:16:30;8.80;99.90
16736;DHT22;17990;49.548;9.730;2022-10-31T02:18:57;8.80;99.90
16736;DHT22;17990;49.548;9.730;2022-10-31T02:21:31;8.80;99.90
16736;DHT22;17990;49.548;9.730;2022-10-31T02:24:31;8.70;99.90
16736;DHT22;17990;49.548;9.730;2022-10-31T02:30:15;8.70;99.90
16736;DHT22;17990;49.548;9.730;2022-10-31T02:32:56;8.60;99.90
16736;DHT22;17990;49.548;9.730;2022-10-31T02:35:42;8.60;99.90
16736;DHT22;17990;49.548;9.730;2022-10-31T02:38:25;8.60;99.90
16736;DHT22;17990;49.548;9.730;2022-10-31T02:41:01;8.60;99.90
16736;DHT22;17990;49.548;9.730;2022-10-31T02:43:38;8.60;99.90
16736;DHT22;17990;49.548;9.730;2022-10-31T02:46:14;8.50;99.90
16736;DHT22;17990;49.548;9.730;2022-10-31T02:48:46;8.50;99.90
16736;DHT22;17990;49.548;9.730;2022-10-31T02:51:15;8.40;99.90
16736;DHT22;17990;49.548;9.730;2022-10-31T02:53:43;8.40;99.90
16736;DHT22;17990;49.548;9.730;2022-10-31T02:56:13;8.40;99.90
16736;DHT22;17990;49.548;9.730;2022-10-31T02:58:44;8.40;99.90
16736;DHT22;17990;49.548;9.730;2022-10-31T03:04:58;8.40;99.90
16736;DHT22;17990;49.548;9.730;2022-10-31T03:07:43;8.50;99.90
16736;DHT22;17990;49.548;9.730;2022-10-31T03:10:19;8.50;99.90
16736;DHT22;17990;49.548;9.730;2022-10-31T03:12:56;8.50;99.90
16736;DHT22;17990;49.548;9.730;2022-10-31T03:15:27;8.60;99.90
16736;DHT22;17990;49.548;9.730;2022-10-31T03:17:58;8.60;99.90
16736;DHT22;17990;49.548;9.730;2022-10-31T03:20:33;8.60;99.90
16736;DHT22;17990;49.548;9.730;2022-10-31T03:23:05;8.70;99.90
16736;DHT22;17990;49.548;9.730;2022-10-31T03:25:35;8.70;99.90
16736;DHT22;17990;49.548;9.730;2022-10-31T03:28:04;8.70;99.90
16736;DHT22;17990;49.548;9.730;2022-10-31T03:30:33;8.70;99.90
16736;DHT22;17990;49.548;9.730;2022-10-31T03:33:06;8.70;99.90
16736;DHT22;17990;49.548;9.730;2022-10-31T03:35:39;8.80;99.90
16736;DHT22;17990;49.548;9.730;2022-10-31T03:38:09;8.80;99.90
16736;DHT22;17990;49.548;9.730;2022-10-31T03:40:38;8.80;99.90
16736;DHT22;17990;49.548;9.730;2022-10-31T03:43:10;8.90;99.90
16736;DHT22;17990;49.548;9.730;2022-10-31T03:45:41;8.80;99.90
16736;DHT22;17990;49.548;9.730;2022-10-31T03:48:11;8.80;99.90
16736;DHT22;17990;49.548;9.730;2022-10-31T03:50:44;8.90;99.90
16736;DHT22;17990;49.548;9.730;2022-10-31T03:53:16;8.80;99.90
16736;DHT22;17990;49.548;9.730;2022-10-31T03:55:52;8.80;99.90
16736;DHT22;17990;49.548;9.730;2022-10-31T03:58:23;8.80;99.90
16736;DHT22;17990;49.548;9.730;2022-10-31T04:00:52;8.80;99.90
16736;DHT22;17990;49.548;9.730;2022-10-31T04:03:23;8.80;99.90
16736;DHT22;17990;49.548;9.730;2022-10-31T04:05:55;8.80;99.90
16736;DHT22;17990;49.548;9.730;2022-10-31T04:08:26;8.70;99.90
16736;DHT22;17990;49.548;9.730;2022-10-31T04:10:56;8.60;99.90
16736;DHT22;17990;49.548;9.730;2022-10-31T04:13:26;8.60;99.90
16736;DHT22;17990;49.548;9.730;2022-10-31T04:15:56;8.60;99.90
16736;DHT22;17990;49.548;9.730;2022-10-31T04:18:23;8.70;99.90
16736;DHT22;17990;49.548;9.730;2022-10-31T04:21:00;8.70;99.90
16736;DHT22;17990;49.548;9.730;2022-10-31T04:23:28;8.70;99.90
16736;DHT22;17990;49.548;9.730;2022-10-31T04:25:55;8.70;99.90
16736;DHT22;17990;49.548;9.730;2022-10-31T04:28:22;8.70;99.90
16736;DHT22;17990;49.548;9.730;2022-10-31T04:30:49;8.80;99.90
16736;DHT22;17990;49.548;9.730;2022-10-31T04:33:16;8.80;99.90
16736;DHT22;17990;49.548;9.730;2022-10-31T04:35:44;8.70;99.90
16736;DHT22;17990;49.548;9.730;2022-10-31T04:38:12;8.80;99.90
16736;DHT22;17990;49.548;9.730;2022-10-31T04:40:39;8.80;99.90
16736;DHT22;17990;49.548;9.730;2022-10-31T04:43:06;8.80;99.90
16736;DHT22;17990;49.548;9.730;2022-10-31T04:45:33;8.80;99.90
16736;DHT22;17990;49.548;9.730;2022-10-31T04:48:00;8.80;99.90
16736;DHT22;17990;49.548;9.730;2022-10-31T04:50:27;8.90;99.90
16736;DHT22;17990;49.548;9.730;2022-10-31T04:52:54;8.90;99.90
16736;DHT22;17990;49.548;9.730;2022-10-31T04:55:22;8.80;99.90
16736;DHT22;17990;49.548;9.730;2022-10-31T04:57:50;8.80;99.90
16736;DHT22;17990;49.548;9.730;2022-10-31T05:00:18;8.80;99.90
16736;DHT22;17990;49.548;9.730;2022-10-31T05:02:48;8.80;99.90
16736;DHT22;17990;49.548;9.730;2022-10-31T05:05:17;8.80;99.90
16736;DHT22;17990;49.548;9.730;2022-10-31T05:07:47;8.80;99.90
16736;DHT22;17990;49.548;9.730;2022-10-31T05:10:16;8.80;99.90
16736;DHT22;17990;49.548;9.730;2022-10-31T05:12:50;8.90;99.90
16736;DHT22;17990;49.548;9.730;2022-10-31T05:15:20;8.90;99.90
16736;DHT22;17990;49.548;9.730;2022-10-31T05:17:47;8.90;99.90
16736;DHT22;17990;49.548;9.730;2022-10-31T05:20:16;8.90;99.90
16736;DHT22;17990;49.548;9.730;2022-10-31T05:22:44;8.90;99.90
16736;DHT22;17990;49.548;9.730;2022-10-31T05:25:12;8.90;99.90
16736;DHT22;17990;49.548;9.730;2022-10-31T05:27:40;8.80;99.90
16736;DHT22;17990;49.548;9.730;2022-10-31T05:30:14;8.80;99.90
16736;DHT22;17990;49.548;9.730;2022-10-31T05:32:44;8.80;99.90
16736;DHT22;17990;49.548;9.730;2022-10-31T05:35:14;8.80;99.90
16736;DHT22;17990;49.548;9.730;2022-10-31T05:37:42;8.80;99.90
16736;DHT22;17990;49.548;9.730;2022-10-31T05:40:11;8.80;99.90
16736;DHT22;17990;49.548;9.730;2022-10-31T05:42:41;8.80;99.90
16736;DHT22;17990;49.548;9.730;2022-10-31T05:45:10;8.70;99.90
16736;DHT22;17990;49.548;9.730;2022-10-31T05:47:39;8.70;99.90
16736;DHT22;17990;49.548;9.730;2022-10-31T05:50:08;8.70;99.90
16736;DHT22;17990;49.548;9.730;2022-10-31T05:52:35;8.70;99.90
16736;DHT22;17990;49.548;9.730;2022-10-31T05:55:03;8.70;99.90
16736;DHT22;17990;49.548;9.730;2022-10-31T05:57:32;8.60;99.90
16736;DHT22;17990;49.548;9.730;2022-10-31T06:00:00;8.60;99.90
16736;DHT22;17990;49.548;9.730;2022-10-31T06:02:28;8.60;99.90
16736;DHT22;17990;49.548;9.730;2022-10-31T06:05:00;8.60;99.90
16736;DHT22;17990;49.548;9.730;2022-10-31T06:07:27;8.50;99.90
16736;DHT22;17990;49.548;9.730;2022-10-31T06:09:59;8.60;99.90
16736;DHT22;17990;49.548;9.730;2022-10-31T06:12:26;8.60;99.90
16736;DHT22;17990;49.548;9.730;2022-10-31T06:14:53;8.60;99.90
16736;DHT22;17990;49.548;9.730;2022-10-31T06:17:20;8.60;99.90
16736;DHT22;17990;49.548;9.730;2022-10-31T06:19:49;8.60;99.90
16736;DHT22;17990;49.548;9.730;2022-10-31T06:22:16;8.60;99.90
16736;DHT22;17990;49.548;9.730;2022-10-31T06:24:43;8.70;99.90
16736;DHT22;17990;49.548;9.730;2022-10-31T06:27:10;8.70;99.90
16736;DHT22;17990;49.548;9.730;2022-10-31T06:29:37;8.70;99.90
16736;DHT22;17990;49.548;9.730;2022-10-31T06:32:04;8.70;99.90
16736;DHT22;17990;49.548;9.730;2022-10-31T06:34:31;8.70;99.90
16736;DHT22;17990;49.548;9.730;2022-10-31T06:36:59;8.70;99.90
16736;DHT22;17990;49.548;9.730;2022-10-31T06:39:26;8.80;99.90
16736;DHT22;17990;49.548;9.730;2022-10-31T06:41:53;8.80;99.90
16736;DHT22;17990;49.548;9.730;2022-10-31T06:44:20;8.80;99.90
16736;DHT22;17990;49.548;9.730;2022-10-31T06:46:48;8.90;99.90
16736;DHT22;17990;49.548;9.730;2022-10-31T06:49:15;8.90;99.90
16736;DHT22;17990;49.548;9.730;2022-10-31T06:51:42;8.90;99.90
16736;DHT22;17990;49.548;9.730;2022-10-31T06:54:10;8.80;99.90
16736;DHT22;17990;49.548;9.730;2022-10-31T06:56:37;8.80;99.90
16736;DHT22;17990;49.548;9.730;2022-10-31T06:59:05;8.90;99.90
16736;DHT22;17990;49.548;9.730;2022-10-31T07:01:32;9.00;99.90
16736;DHT22;17990;49.548;9.730;2022-10-31T07:03:59;9.10;99.90
16736;DHT22;17990;49.548;9.730;2022-10-31T07:06:26;9.10;99.90
16736;DHT22;17990;49.548;9.730;2022-10-31T07:08:53;9.00;99.90
16736;DHT22;17990;49.548;9.730;2022-10-31T07:11:21;9.10;99.90
16736;DHT22;17990;49.548;9.730;2022-10-31T07:13:48;9.10;99.90
16736;DHT22;17990;49.548;9.730;2022-10-31T07:16:15;9.10;99.90
16736;DHT22;17990;49.548;9.730;2022-10-31T07:18:42;9.10;99.90
16736;DHT22;17990;49.548;9.730;2022-10-31T07:21:10;9.10;99.90
16736;DHT22;17990;49.548;9.730;2022-10-31T07:23:37;9.10;99.90
16736;DHT22;17990;49.548;9.730;2022-10-31T07:26:04;9.30;99.90
16736;DHT22;17990;49.548;9.730;2022-10-31T07:28:32;9.30;99.90
16736;DHT22;17990;49.548;9.730;2022-10-31T07:31:00;9.20;99.90
16736;DHT22;17990;49.548;9.730;2022-10-31T07:33:27;9.30;99.90
16736;DHT22;17990;49.548;9.730;2022-10-31T07:35:54;9.40;99.90
16736;DHT22;17990;49.548;9.730;2022-10-31T07:38:21;9.50;99.90
16736;DHT22;17990;49.548;9.730;2022-10-31T07:40:50;9.60;99.90
16736;DHT22;17990;49.548;9.730;2022-10-31T07:43:18;9.70;99.90
16736;DHT22;17990;49.548;9.730;2022-10-31T07:45:50;9.60;99.90
16736;DHT22;17990;49.548;9.730;2022-10-31T07:48:18;9.70;99.90
16736;DHT22;17990;49.548;9.730;2022-10-31T07:50:46;9.80;99.90
16736;DHT22;17990;49.548;9.730;2022-10-31T07:53:13;9.80;99.90
16736;DHT22;17990;49.548;9.730;2022-10-31T07:55:41;9.90;99.90
16736;DHT22;17990;49.548;9.730;2022-10-31T07:58:10;10.00;99.90
16736;DHT22;17990;49.548;9.730;2022-10-31T08:00:39;10.10;99.90
16736;DHT22;17990;49.548;9.730;2022-10-31T08:03:10;10.30;99.90
16736;DHT22;17990;49.548;9.730;2022-10-31T08:05:38;10.40;99.90
16736;DHT22;17990;49.548;9.730;2022-10-31T08:08:06;10.50;99.90
16736;DHT22;17990;49.548;9.730;2022-10-31T08:10:34;10.60;99.90
16736;DHT22;17990;49.548;9.730;2022-10-31T08:13:03;10.60;99.90
16736;DHT22;17990;49.548;9.730;2022-10-31T08:15:31;10.70;99.90
16736;DHT22;17990;49.548;9.730;2022-10-31T08:17:59;10.30;99.90
16736;DHT22;17990;49.548;9.730;2022-10-31T08:20:28;10.00;99.90
16736;DHT22;17990;49.548;9.730;2022-10-31T08:22:57;10.10;99.90
16736;DHT22;17990;49.548;9.730;2022-10-31T08:25:27;10.30;99.90
16736;DHT22;17990;49.548;9.730;2022-10-31T08:27:56;10.40;99.90
16736;DHT22;17990;49.548;9.730;2022-10-31T08:30:26;10.40;99.90
16736;DHT22;17990;49.548;9.730;2022-10-31T08:32:59;10.60;99.90
16736;DHT22;17990;49.548;9.730;2022-10-31T08:35:28;10.60;99.90
16736;DHT22;17990;49.548;9.730;2022-10-31T08:37:56;10.70;99.90
16736;DHT22;17990;49.548;9.730;2022-10-31T08:40:24;10.80;99.90
16736;DHT22;17990;49.548;9.730;2022-10-31T08:42:59;11.00;99.90
16736;DHT22;17990;49.548;9.730;2022-10-31T08:45:28;11.10;99.90
16736;DHT22;17990;49.548;9.730;2022-10-31T08:47:58;11.20;99.90
16736;DHT22;17990;49.548;9.730;2022-10-31T08:50:26;11.20;99.90
16736;DHT22;17990;49.548;9.730;2022-10-31T08:53:00;11.30;99.90
16736;DHT22;17990;49.548;9.730;2022-10-31T08:55:27;11.40;99.90
16736;DHT22;17990;49.548;9.730;2022-10-31T08:57:55;11.50;99.90
16736;DHT22;17990;49.548;9.730;2022-10-31T09:00:23;11.40;99.90
16736;DHT22;17990;49.548;9.730;2022-10-31T09:02:55;11.40;99.90
16736;DHT22;17990;49.548;9.730;2022-10-31T09:05:23;11.40;99.90
16736;DHT22;17990;49.548;9.730;2022-10-31T09:07:55;11.60;99.90
16736;DHT22;17990;49.548;9.730;2022-10-31T09:10:23;11.60;99.90
16736;DHT22;17990;49.548;9.730;2022-10-31T09:12:54;11.60;99.90
16736;DHT22;17990;49.548;9.730;2022-10-31T09:15:22;11.80;99.90
16736;DHT22;17990;49.548;9.730;2022-10-31T09:17:49;11.90;99.90
16736;DHT22;17990;49.548;9.730;2022-10-31T09:20:16;12.00;99.90
16736;DHT22;17990;49.548;9.730;2022-10-31T09:22:43;12.00;99.90
16736;DHT22;17990;49.548;9.730;2022-10-31T09:25:12;11.90;99.90
16736;DHT22;17990;49.548;9.730;2022-10-31T09:27:39;11.80;99.90
16736;DHT22;17990;49.548;9.730;2022-10-31T09:30:07;11.90;99.90
16736;DHT22;17990;49.548;9.730;2022-10-31T09:32:35;12.00;99.90
16736;DHT22;17990;49.548;9.730;2022-10-31T09:35:02;12.10;99.90
16736;DHT22;17990;49.548;9.730;2022-10-31T09:37:29;12.20;99.90
16736;DHT22;17990;49.548;9.730;2022-10-31T09:39:56;12.40;99.90
16736;DHT22;17990;49.548;9.730;2022-10-31T09:42:43;12.50;99.90
16736;DHT22;17990;49.548;9.730;2022-10-31T09:45:20;12.70;99.90
16736;DHT22;17990;49.548;9.730;2022-10-31T09:47:58;12.80;99.90
16736;DHT22;17990;49.548;9.730;2022-10-31T09:50:39;12.80;99.90
16736;DHT22;17990;49.548;9.730;2022-10-31T09:53:21;13.00;99.90
16736;DHT22;17990;49.548;9.730;2022-10-31T09:55:51;13.00;99.90
16736;DHT22;17990;49.548;9.730;2022-10-31T09:58:23;13.10;99.90
16736;DHT22;17990;49.548;9.730;2022-10-31T10:00:53;13.20;99.90
16736;DHT22;17990;49.548;9.730;2022-10-31T10:03:30;13.20;99.90
16736;DHT22;17990;49.548;9.730;2022-10-31T10:06:06;13.30;99.90
16736;DHT22;17990;49.548;9.730;2022-10-31T10:08:38;13.30;99.90
16736;DHT22;17990;49.548;9.730;2022-10-31T10:11:18;13.40;99.90
16736;DHT22;17990;49.548;9.730;2022-10-31T10:14:12;13.40;99.90
16736;DHT22;17990;49.548;9.730;2022-10-31T10:16:59;13.40;99.90
16736;DHT22;17990;49.548;9.730;2022-10-31T10:19:46;13.40;99.90
16736;DHT22;17990;49.548;9.730;2022-10-31T10:22:37;13.50;99.90
16736;DHT22;17990;49.548;9.730;2022-10-31T10:25:15;13.50;99.90
16736;DHT22;17990;49.548;9.730;2022-10-31T10:27:51;13.60;99.90
16736;DHT22;17990;49.548;9.730;2022-10-31T10:30:32;13.60;99.90
16736;DHT22;17990;49.548;9.730;2022-10-31T10:33:10;13.70;99.90
16736;DHT22;17990;49.548;9.730;2022-10-31T10:35:44;13.90;99.90
16736;DHT22;17990;49.548;9.730;2022-10-31T10:38:20;13.90;99.90
16736;DHT22;17990;49.548;9.730;2022-10-31T10:40:53;14.00;99.90
16736;DHT22;17990;49.548;9.730;2022-10-31T10:43:24;14.10;99.90
16736;DHT22;17990;49.548;9.730;2022-10-31T10:46:21;14.10;99.90
16736;DHT22;17990;49.548;9.730;2022-10-31T10:49:15;14.10;99.90
16736;DHT22;17990;49.548;9.730;2022-10-31T10:51:46;14.10;99.90
16736;DHT22;17990;49.548;9.730;2022-10-31T10:54:33;14.20;99.90
16736;DHT22;17990;49.548;9.730;2022-10-31T10:57:15;14.20;99.90
16736;DHT22;17990;49.548;9.730;2022-10-31T10:59:49;14.30;99.90
16736;DHT22;17990;49.548;9.730;2022-10-31T11:02:20;14.40;99.90
16736;DHT22;17990;49.548;9.730;2022-10-31T11:04:51;14.50;99.90
16736;DHT22;17990;49.548;9.730;2022-10-31T11:07:19;14.50;99.90
16736;DHT22;17990;49.548;9.730;2022-10-31T11:09:46;14.60;99.90
16736;DHT22;17990;49.548;9.730;2022-10-31T11:12:20;14.70;99.90
16736;DHT22;17990;49.548;9.730;2022-10-31T11:14:51;14.60;99.90
16736;DHT22;17990;49.548;9.730;2022-10-31T11:17:27;14.60;99.90
16736;DHT22;17990;49.548;9.730;2022-10-31T11:20:03;14.60;99.90
16736;DHT22;17990;49.548;9.730;2022-10-31T11:22:33;14.60;99.90
16736;DHT22;17990;49.548;9.730;2022-10-31T11:25:00;14.50;99.90
16736;DHT22;17990;49.548;9.730;2022-10-31T11:27:30;14.40;99.90
16736;DHT22;17990;49.548;9.730;2022-10-31T11:30:05;14.40;99.90
16736;DHT22;17990;49.548;9.730;2022-10-31T11:32:34;14.50;99.90
16736;DHT22;17990;49.548;9.730;2022-10-31T11:35:09;14.50;99.90
16736;DHT22;17990;49.548;9.730;2022-10-31T11:37:42;14.60;99.90
16736;DHT22;17990;49.548;9.730;2022-10-31T11:40:17;14.60;99.90
16736;DHT22;17990;49.548;9.730;2022-10-31T11:42:46;14.70;99.90
16736;DHT22;17990;49.548;9.730;2022-10-31T11:45:25;14.70;99.90
16736;DHT22;17990;49.548;9.730;2022-10-31T11:47:57;14.70;99.90
16736;DHT22;17990;49.548;9.730;2022-10-31T11:50:29;14.80;99.90
16736;DHT22;17990;49.548;9.730;2022-10-31T11:53:00;14.80;99.90
16736;DHT22;17990;49.548;9.730;2022-10-31T11:55:32;14.90;99.90
16736;DHT22;17990;49.548;9.730;2022-10-31T11:58:00;15.00;99.90
16736;DHT22;17990;49.548;9.730;2022-10-31T12:00:29;15.10;99.90
16736;DHT22;17990;49.548;9.730;2022-10-31T12:03:26;15.20;99.90
16736;DHT22;17990;49.548;9.730;2022-10-31T12:05:58;15.20;99.90
16736;DHT22;17990;49.548;9.730;2022-10-31T12:08:30;15.20;99.90
16736;DHT22;17990;49.548;9.730;2022-10-31T12:11:03;15.20;99.90
16736;DHT22;17990;49.548;9.730;2022-10-31T12:13:40;15.20;99.90
16736;DHT22;17990;49.548;9.730;2022-10-31T12:16:18;15.30;99.90
16736;DHT22;17990;49.548;9.730;2022-10-31T12:19:03;15.20;99.90
16736;DHT22;17990;49.548;9.730;2022-10-31T12:21:54;15.20;99.90
16736;DHT22;17990;49.548;9.730;2022-10-31T12:24:45;15.20;99.90
16736;DHT22;17990;49.548;9.730;2022-10-31T12:27:32;15.30;99.90
16736;DHT22;17990;49.548;9.730;2022-10-31T12:30:13;15.30;99.90
16736;DHT22;17990;49.548;9.730;2022-10-31T12:33:05;15.40;99.90
16736;DHT22;17990;49.548;9.730;2022-10-31T12:35:49;15.50;99.90
16736;DHT22;17990;49.548;9.730;2022-10-31T12:38:40;15.50;99.90
16736;DHT22;17990;49.548;9.730;2022-10-31T12:41:24;15.60;99.90
16736;DHT22;17990;49.548;9.730;2022-10-31T12:44:05;15.70;99.90
16736;DHT22;17990;49.548;9.730;2022-10-31T12:46:50;15.60;99.90
16736;DHT22;17990;49.548;9.730;2022-10-31T12:49:42;15.70;99.90
16736;DHT22;17990;49.548;9.730;2022-10-31T12:52:33;15.70;99.90
16736;DHT22;17990;49.548;9.730;2022-10-31T12:55:21;15.70;99.90
16736;DHT22;17990;49.548;9.730;2022-10-31T12:58:02;15.70;99.90
16736;DHT22;17990;49.548;9.730;2022-10-31T13:00:31;15.60;99.90
16736;DHT22;17990;49.548;9.730;2022-10-31T13:03:09;15.60;99.90
16736;DHT22;17990;49.548;9.730;2022-10-31T13:05:48;15.60;99.90
16736;DHT22;17990;49.548;9.730;2022-10-31T13:08:21;15.60;99.90
16736;DHT22;17990;49.548;9.730;2022-10-31T13:10:55;15.60;99.90
16736;DHT22;17990;49.548;9.730;2022-10-31T13:13:34;15.60;99.90
16736;DHT22;17990;49.548;9.730;2022-10-31T13:16:14;15.60;99.90
16736;DHT22;17990;49.548;9.730;2022-10-31T13:18:45;15.70;99.90
16736;DHT22;17990;49.548;9.730;2022-10-31T13:21:18;15.70;99.90
16736;DHT22;17990;49.548;9.730;2022-10-31T13:23:51;15.70;99.90
16736;DHT22;17990;49.548;9.730;2022-10-31T13:26:26;15.70;99.90
16736;DHT22;17990;49.548;9.730;2022-10-31T13:29:05;15.60;99.90
16736;DHT22;17990;49.548;9.730;2022-10-31T13:31:40;15.60;99.90
16736;DHT22;17990;49.548;9.730;2022-10-31T13:34:16;15.60;99.90
16736;DHT22;17990;49.548;9.730;2022-10-31T13:36:53;15.60;99.90
16736;DHT22;17990;49.548;9.730;2022-10-31T13:39:40;15.50;99.90
16736;DHT22;17990;49.548;9.730;2022-10-31T13:42:18;15.60;99.90
16736;DHT22;17990;49.548;9.730;2022-10-31T13:44:47;15.50;99.90
16736;DHT22;17990;49.548;9.730;2022-10-31T13:47:24;15.50;99.90
16736;DHT22;17990;49.548;9.730;2022-10-31T13:50:04;15.50;99.90
16736;DHT22;17990;49.548;9.730;2022-10-31T13:52:33;15.50;99.90
16736;DHT22;17990;49.548;9.730;2022-10-31T13:55:01;15.60;99.90
16736;DHT22;17990;49.548;9.730;2022-10-31T13:57:32;15.50;99.90
16736;DHT22;17990;49.548;9.730;2022-10-31T14:00:04;15.50;99.90
16736;DHT22;17990;49.548;9.730;2022-10-31T14:02:34;15.50;99.90
16736;DHT22;17990;49.548;9.730;2022-10-31T14:05:05;15.60;99.90
16736;DHT22;17990;49.548;9.730;2022-10-31T14:07:43;15.60;99.90
16736;DHT22;17990;49.548;9.730;2022-10-31T14:10:22;15.50;99.90
16736;DHT22;17990;49.548;9.730;2022-10-31T14:12:52;15.50;99.90
16736;DHT22;17990;49.548;9.730;2022-10-31T14:15:22;15.40;99.90
16736;DHT22;17990;49.548;9.730;2022-10-31T14:17:54;15.40;99.90
16736;DHT22;17990;49.548;9.730;2022-10-31T14:20:35;15.30;99.90
16736;DHT22;17990;49.548;9.730;2022-10-31T14:29:24;15.20;99.90
16736;DHT22;17990;49.548;9.730;2022-10-31T14:34:53;15.00;99.90
16736;DHT22;17990;49.548;9.730;2022-10-31T14:37:32;15.00;99.90
16736;DHT22;17990;49.548;9.730;2022-10-31T14:40:21;15.00;99.90
16736;DHT22;17990;49.548;9.730;2022-10-31T14:43:17;15.00;99.90
16736;DHT22;17990;49.548;9.730;2022-10-31T14:46:06;15.00;99.90
16736;DHT22;17990;49.548;9.730;2022-10-31T14:48:59;15.00;99.90
16736;DHT22;17990;49.548;9.730;2022-10-31T14:51:36;15.00;99.90
16736;DHT22;17990;49.548;9.730;2022-10-31T14:54:07;15.00;99.90
16736;DHT22;17990;49.548;9.730;2022-10-31T14:56:48;15.00;99.90
16736;DHT22;17990;49.548;9.730;2022-10-31T14:59:21;15.00;99.90
16736;DHT22;17990;49.548;9.730;2022-10-31T15:01:56;15.00;99.90
16736;DHT22;17990;49.548;9.730;2022-10-31T15:04:27;15.00;99.90
16736;DHT22;17990;49.548;9.730;2022-10-31T15:07:00;15.20;99.90
16736;DHT22;17990;49.548;9.730;2022-10-31T15:09:32;15.20;99.90
16736;DHT22;17990;49.548;9.730;2022-10-31T15:12:16;15.20;99.90
16736;DHT22;17990;49.548;9.730;2022-10-31T15:14:50;15.20;99.90
16736;DHT22;17990;49.548;9.730;2022-10-31T15:17:18;15.30;99.90
16736;DHT22;17990;49.548;9.730;2022-10-31T15:19:52;15.30;99.90
16736;DHT22;17990;49.548;9.730;2022-10-31T15:22:29;15.20;99.90
16736;DHT22;17990;49.548;9.730;2022-10-31T15:24:58;15.10;99.90
16736;DHT22;17990;49.548;9.730;2022-10-31T15:27:26;14.90;99.90
16736;DHT22;17990;49.548;9.730;2022-10-31T15:29:56;14.90;99.90
16736;DHT22;17990;49.548;9.730;2022-10-31T15:32:24;14.80;99.90
16736;DHT22;17990;49.548;9.730;2022-10-31T15:34:54;14.80;99.90
16736;DHT22;17990;49.548;9.730;2022-10-31T15:37:25;14.80;99.90
16736;DHT22;17990;49.548;9.730;2022-10-31T15:39:53;14.70;99.90
16736;DHT22;17990;49.548;9.730;2022-10-31T15:42:22;14.70;99.90
16736;DHT22;17990;49.548;9.730;2022-10-31T15:44:59;14.70;99.90
16736;DHT22;17990;49.548;9.730;2022-10-31T15:47:30;14.60;99.90
16736;DHT22;17990;49.548;9.730;2022-10-31T15:49:59;14.50;99.90
16736;DHT22;17990;49.548;9.730;2022-10-31T15:52:30;14.50;99.90
16736;DHT22;17990;49.548;9.730;2022-10-31T15:55:01;14.40;99.90
16736;DHT22;17990;49.548;9.730;2022-10-31T15:57:31;14.40;99.90
16736;DHT22;17990;49.548;9.730;2022-10-31T15:59:59;14.30;99.90
16736;DHT22;17990;49.548;9.730;2022-10-31T16:02:28;14.20;99.90
16736;DHT22;17990;49.548;9.730;2022-10-31T16:04:57;14.20;99.90
16736;DHT22;17990;49.548;9.730;2022-10-31T16:07:26;14.10;99.90
16736;DHT22;17990;49.548;9.730;2022-10-31T16:09:55;13.90;99.90
16736;DHT22;17990;49.548;9.730;2022-10-31T16:12:31;13.80;99.90
16736;DHT22;17990;49.548;9.730;2022-10-31T16:15:02;13.80;99.90
16736;DHT22;17990;49.548;9.730;2022-10-31T16:17:32;13.80;99.90
16736;DHT22;17990;49.548;9.730;2022-10-31T16:20:01;13.80;99.90
16736;DHT22;17990;49.548;9.730;2022-10-31T16:22:31;13.80;99.90